Observation data for Memphis on 07/11/2018      Previous  Date       Current Mesonet Observations  Soil Data  Daily Summary Page  Observations in Plain Language
KMES 110500Z 10001KT 25/19 A3009 RMK A01 T02460188  RH  074%=      5-min Rain = 0
KMES 110505Z 08002KT 25/19 A3009 RMK A01 T02450188  RH  074%=      5-min Rain = 0
KMES 110510Z 07003KT 24/19 A3009 RMK A01 T02430188  RH  076%=      5-min Rain = 0
KMES 110515Z 07004KT 24/19 A3009 RMK A01 T02400188  RH  077%=      5-min Rain = 0
KMES 110520Z 07004KT 24/19 A301 RMK A01 T02390187  RH  077%=      5-min Rain = 0
KMES 110525Z 07004KT 24/19 A301 RMK A01 T02390187  RH  077%=      5-min Rain = 0
KMES 110530Z 07003KT 24/19 A301 RMK A01 T02400187  RH  076%=      5-min Rain = 0
KMES 110535Z 08002KT 24/19 A301 RMK A01 T02400187  RH  076%=      5-min Rain = 0
KMES 110540Z 09001KT 24/19 A301 RMK A01 T02410187  RH  076%=      5-min Rain = 0
KMES 110545Z 10001KT 24/19 A301 RMK A01 T02420187  RH  076%=      5-min Rain = 0
KMES 110550Z 08002KT 24/19 A301 RMK A01 T02420188  RH  076%=      5-min Rain = 0
KMES 110555Z 09001KT 24/19 A301 RMK A01 T02430188  RH  076%=      5-min Rain = 0
KMES 110600Z 09001KT 24/19 A301 RMK A01 T02430188  RH  075%=      5-min Rain = 0
KMES 110605Z 11000KT 24/19 A3009 RMK A01 T02420188  RH  076%=      5-min Rain = 0
KMES 110610Z 09001KT 24/19 A3009 RMK A01 T02420188  RH  076%=      5-min Rain = 0
KMES 110615Z 10003KT 24/19 A3009 RMK A01 T02420188  RH  076%=      5-min Rain = 0
KMES 110620Z 10003KT 24/19 A3009 RMK A01 T02420188  RH  076%=      5-min Rain = 0
KMES 110625Z 10003KT 24/19 A3009 RMK A01 T02410188  RH  076%=      5-min Rain = 0
KMES 110630Z 10003KT 24/19 A3009 RMK A01 T02410188  RH  077%=      5-min Rain = 0
KMES 110635Z 09003KT 24/19 A3009 RMK A01 T02400189  RH  077%=      5-min Rain = 0
KMES 110640Z 08003KT 24/19 A3009 RMK A01 T02380189  RH  078%=      5-min Rain = 0
KMES 110645Z 09003KT 24/19 A3009 RMK A01 T02380190  RH  079%=      5-min Rain = 0
KMES 110650Z 08002KT 24/19 A3009 RMK A01 T02370189  RH  079%=      5-min Rain = 0
KMES 110655Z 05001KT 24/19 A3009 RMK A01 T02370189  RH  079%=      5-min Rain = 0
KMES 110700Z 04002KT 24/19 A3009 RMK A01 T02350189  RH  079%=      5-min Rain = 0
KMES 110705Z 04002KT 23/19 A3009 RMK A01 T02340189  RH  080%=      5-min Rain = 0
KMES 110710Z 06002KT 23/19 A3009 RMK A01 T02340189  RH  080%=      5-min Rain = 0
KMES 110715Z 06002KT 23/19 A3008 RMK A01 T02340189  RH  080%=      5-min Rain = 0
KMES 110720Z 06002KT 23/19 A3009 RMK A01 T02340189  RH  080%=      5-min Rain = 0
KMES 110725Z 03002KT 23/19 A3009 RMK A01 T02330189  RH  080%=      5-min Rain = 0
KMES 110730Z 35002KT 23/19 A3009 RMK A01 T02310189  RH  081%=      5-min Rain = 0
KMES 110735Z 34002KT 23/19 A3009 RMK A01 T02290188  RH  082%=      5-min Rain = 0
KMES 110740Z 33001KT 23/19 A3009 RMK A01 T02290188  RH  082%=      5-min Rain = 0
KMES 110745Z 29001KT 23/19 A3009 RMK A01 T02290188  RH  082%=      5-min Rain = 0
KMES 110750Z 30002KT 23/19 A3009 RMK A01 T02270187  RH  083%=      5-min Rain = 0
KMES 110755Z 30003KT 23/19 A3008 RMK A01 T02260188  RH  084%=      5-min Rain = 0
KMES 110800Z 30003KT 23/19 A3008 RMK A01 T02260188  RH  084%=      5-min Rain = 0
KMES 110805Z 30002KT 23/19 A3008 RMK A01 T02270189  RH  084%=      5-min Rain = 0
KMES 110810Z 30001KT 23/19 A3008 RMK A01 T02270189  RH  083%=      5-min Rain = 0
KMES 110815Z 30001KT 23/19 A3009 RMK A01 T02270189  RH  084%=      5-min Rain = 0
KMES 110820Z 30000KT 23/19 A3009 RMK A01 T02260189  RH  084%=      5-min Rain = 0
KMES 110825Z 30000KT 23/19 A3009 RMK A01 T02260190  RH  085%=      5-min Rain = 0
KMES 110830Z 26000KT 23/19 A3009 RMK A01 T02250189  RH  085%=      5-min Rain = 0
KMES 110835Z 19001KT 23/19 A3008 RMK A01 T02250190  RH  085%=      5-min Rain = 0
KMES 110840Z 20001KT 22/19 A3008 RMK A01 T02240189  RH  085%=      5-min Rain = 0
KMES 110845Z 20000KT 22/19 A3008 RMK A01 T02240189  RH  085%=      5-min Rain = 0
KMES 110850Z 33001KT 22/19 A3008 RMK A01 T02240189  RH  086%=      5-min Rain = 0
KMES 110855Z 34002KT 22/19 A3008 RMK A01 T02220189  RH  086%=      5-min Rain = 0
KMES 110900Z 34000KT 22/19 A3008 RMK A01 T02210188  RH  086%=      5-min Rain = 0
KMES 110905Z 34001KT 22/19 A3008 RMK A01 T02200188  RH  087%=      5-min Rain = 0
KMES 110910Z 34001KT 22/19 A3008 RMK A01 T02200188  RH  087%=      5-min Rain = 0
KMES 110915Z 33001KT 22/19 A3008 RMK A01 T02200188  RH  087%=      5-min Rain = 0
KMES 110920Z 34001KT 22/19 A3008 RMK A01 T02200188  RH  087%=      5-min Rain = 0
KMES 110925Z 36001KT 22/19 A3008 RMK A01 T02200188  RH  087%=      5-min Rain = 0
KMES 110930Z 00000KT 22/19 A3008 RMK A01 T02180187  RH  087%=      5-min Rain = 0
KMES 110935Z 01000KT 22/19 A3007 RMK A01 T02170187  RH  087%=      5-min Rain = 0
KMES 110940Z 01000KT 22/19 A3007 RMK A01 T02170187  RH  088%=      5-min Rain = 0
KMES 110945Z 01000KT 22/19 A3007 RMK A01 T02160187  RH  088%=      5-min Rain = 0
KMES 110950Z 01000KT 22/19 A3007 RMK A01 T02150187  RH  088%=      5-min Rain = 0
KMES 110955Z 00000KT 22/19 A3007 RMK A01 T02150186  RH  089%=      5-min Rain = 0
KMES 111000Z 33001KT 21/19 A3007 RMK A01 T02140187  RH  089%=      5-min Rain = 0
KMES 111005Z 32002KT 22/19 A3007 RMK A01 T02150188  RH  089%=      5-min Rain = 0
KMES 111010Z 31002KT 22/19 A3007 RMK A01 T02150186  RH  088%=      5-min Rain = 0
KMES 111015Z 31002KT 21/19 A3007 RMK A01 T02140185  RH  088%=      5-min Rain = 0
KMES 111020Z 31002KT 21/19 A3007 RMK A01 T02130185  RH  088%=      5-min Rain = 0
KMES 111025Z 32002KT 21/19 A3006 RMK A01 T02130185  RH  089%=      5-min Rain = 0
KMES 111030Z 33002KT 21/18 A3006 RMK A01 T02120184  RH  089%=      5-min Rain = 0
KMES 111035Z 32002KT 21/18 A3007 RMK A01 T02110184  RH  089%=      5-min Rain = 0
KMES 111040Z 35002KT 21/18 A3007 RMK A01 T02110183  RH  089%=      5-min Rain = 0
KMES 111045Z 35002KT 21/18 A3007 RMK A01 T02100183  RH  089%=      5-min Rain = 0
KMES 111050Z 00001KT 21/18 A3006 RMK A01 T02090183  RH  089%=      5-min Rain = 0
KMES 111055Z 00001KT 21/18 A3006 RMK A01 T02090183  RH  090%=      5-min Rain = 0
KMES 111100Z 01001KT 21/18 A3006 RMK A01 T02100183  RH  090%=      5-min Rain = 0
KMES 111105Z 03002KT 21/18 A3006 RMK A01 T02090183  RH  090%=      5-min Rain = 0
KMES 111110Z 04002KT 21/18 A3007 RMK A01 T02080183  RH  090%=      5-min Rain = 0
KMES 111115Z 04001KT 21/18 A3006 RMK A01 T02080183  RH  090%=      5-min Rain = 0
KMES 111120Z 04001KT 21/18 A3006 RMK A01 T02070183  RH  091%=      5-min Rain = 0
KMES 111125Z 04000KT 21/18 A3007 RMK A01 T02070183  RH  091%=      5-min Rain = 0
KMES 111130Z 04002KT 21/18 A3007 RMK A01 T02070184  RH  091%=      5-min Rain = 0
KMES 111135Z 04001KT 21/18 A3007 RMK A01 T02080184  RH  091%=      5-min Rain = 0
KMES 111140Z 04000KT 21/18 A3007 RMK A01 T02080184  RH  091%=      5-min Rain = 0
KMES 111145Z 00000KT 21/19 A3007 RMK A01 T02080185  RH  091%=      5-min Rain = 0
KMES 111150Z 00000KT 21/19 A3008 RMK A01 T02100186  RH  091%=      5-min Rain = 0
KMES 111155Z 00000KT 21/19 A3008 RMK A01 T02110187  RH  091%=      5-min Rain = 0
KMES 111200Z 00000KT 21/19 A3008 RMK A01 T02130189  RH  091%=      5-min Rain = 0
KMES 111205Z 00000KT 21/19 A3008 RMK A01 T02140189  RH  091%=      5-min Rain = 0
KMES 111210Z 00000KT 22/19 A3008 RMK A01 T02150189  RH  090%=      5-min Rain = 0
KMES 111215Z 00000KT 22/19 A3008 RMK A01 T02160190  RH  090%=      5-min Rain = 0
KMES 111220Z 00000KT 22/19 A3008 RMK A01 T02170191  RH  090%=      5-min Rain = 0
KMES 111225Z 00000KT 22/19 A3008 RMK A01 T02190192  RH  089%=      5-min Rain = 0
KMES 111230Z 00000KT 22/19 A3008 RMK A01 T02210193  RH  089%=      5-min Rain = 0
KMES 111235Z 11001KT 22/20 A3008 RMK A01 T02230195  RH  089%=      5-min Rain = 0
KMES 111240Z 10001KT 23/20 A3009 RMK A01 T02280196  RH  087%=      5-min Rain = 0
KMES 111245Z 09002KT 23/20 A3009 RMK A01 T02320197  RH  085%=      5-min Rain = 0
KMES 111250Z 09003KT 24/20 A3009 RMK A01 T02350196  RH  083%=      5-min Rain = 0
KMES 111255Z 09003KT 24/20 A3009 RMK A01 T02360195  RH  082%=      5-min Rain = 0
KMES 111300Z 09002KT 24/20 A3009 RMK A01 T02370196  RH  082%=      5-min Rain = 0
KMES 111305Z 08003KT 24/20 A3009 RMK A01 T02390196  RH  082%=      5-min Rain = 0
KMES 111310Z 08004KT 24/20 A301 RMK A01 T02390195  RH  080%=      5-min Rain = 0
KMES 111315Z 09003KT 24/20 A301 RMK A01 T02400195  RH  080%=      5-min Rain = 0
KMES 111320Z 09003KT 24/20 A301 RMK A01 T02430196  RH  079%=      5-min Rain = 0
KMES 111325Z 09003KT 25/20 A301 RMK A01 T02480196  RH  077%=      5-min Rain = 0
KMES 111330Z 09004KT 25/20 A301 RMK A01 T02520196  RH  075%=      5-min Rain = 0
KMES 111335Z 08004KT 25/20 A3009 RMK A01 T02530195  RH  074%=      5-min Rain = 0
KMES 111340Z 11004KT 25/20 A301 RMK A01 T02540195  RH  074%=      5-min Rain = 0
KMES 111345Z 11003KT 26/19 A301 RMK A01 T02570194  RH  072%=      5-min Rain = 0
KMES 111350Z 11004KT 26/20 A301 RMK A01 T02570195  RH  072%=      5-min Rain = 0
KMES 111355Z 09003KT 26/20 A3011 RMK A01 T02590195  RH  071%=      5-min Rain = 0
KMES 111400Z 09004KT 26/20 A3011 RMK A01 T02600195  RH  071%=      5-min Rain = 0
KMES 111405Z 13004KT 26/20 A3011 RMK A01 T02630196  RH  071%=      5-min Rain = 0
KMES 111410Z 14005KT 27/20 A3011 RMK A01 T02650195  RH  069%=      5-min Rain = 0
KMES 111415Z 14005KT 27/19 A3011 RMK A01 T02670194  RH  068%=      5-min Rain = 0
KMES 111420Z 14004KT 27/19 A3011 RMK A01 T02670192  RH  067%=      5-min Rain = 0
KMES 111425Z 11004KT 27/20 A3011 RMK A01 T02670195  RH  068%=      5-min Rain = 0
KMES 111430Z 10005KT 27/20 A3012 RMK A01 T02680195  RH  068%=      5-min Rain = 0
KMES 111435Z 11004KT 27/20 A3011 RMK A01 T02700195  RH  067%=      5-min Rain = 0
KMES 111440Z 12005KT 27/20 A3011 RMK A01 T02710195  RH  067%=      5-min Rain = 0
KMES 111445Z 12004KT 27/20 A3011 RMK A01 T02720195  RH  066%=      5-min Rain = 0
KMES 111450Z 13005KT 27/20 A301 RMK A01 T02740195  RH  066%=      5-min Rain = 0
KMES 111455Z 14005KT 28/19 A3011 RMK A01 T02780192  RH  063%=      5-min Rain = 0
KMES 111500Z 14005KT 28/19 A3011 RMK A01 T02820190  RH  061%=      5-min Rain = 0
KMES 111505Z 14004KT 28/19 A3011 RMK A01 T02840190  RH  060%=      5-min Rain = 0
KMES 111510Z 14005KT 29/19 A3011 RMK A01 T02860190  RH  059%=      5-min Rain = 0
KMES 111515Z 15004KT 29/19 A3011 RMK A01 T02900191  RH  058%=      5-min Rain = 0
KMES 111520Z 19006KT 29/17 A3011 RMK A01 T02940174  RH  051%=      5-min Rain = 0
KMES 111525Z 22007KT 29/17 A301 RMK A01 T02940167  RH  049%=      5-min Rain = 0
KMES 111530Z 20006G12KT 29/17 A301 RMK A01 T02920171  RH  051%=      5-min Rain = 0
KMES 111535Z 20005KT 30/18 A301 RMK A01 T02960175  RH  051%=      5-min Rain = 0
KMES 111540Z 20008G13KT 30/17 A301 RMK A01 T02980172  RH  049%=      5-min Rain = 0
KMES 111545Z 23009KT 30/17 A3009 RMK A01 T02970171  RH  049%=      5-min Rain = 0
KMES 111550Z 23008G14KT 30/17 A3009 RMK A01 T03000172  RH  049%=      5-min Rain = 0
KMES 111555Z 23008KT 30/17 A3009 RMK A01 T03020171  RH  048%=      5-min Rain = 0
KMES 111600Z 22006KT 30/17 A3009 RMK A01 T03040174  RH  048%=      5-min Rain = 0
KMES 111605Z 20007KT 30/17 A3009 RMK A01 T03040172  RH  048%=      5-min Rain = 0
KMES 111610Z 20006KT 30/17 A301 RMK A01 T03030169  RH  047%=      5-min Rain = 0
KMES 111615Z 23008KT 31/17 A3009 RMK A01 T03080170  RH  046%=      5-min Rain = 0
KMES 111620Z 21007KT 31/17 A3009 RMK A01 T03090170  RH  045%=      5-min Rain = 0
KMES 111625Z 21009KT 31/17 A3009 RMK A01 T03110170  RH  045%=      5-min Rain = 0
KMES 111630Z 22007KT 31/17 A3009 RMK A01 T03120171  RH  045%=      5-min Rain = 0
KMES 111635Z 22006KT 31/17 A3009 RMK A01 T03130169  RH  044%=      5-min Rain = 0
KMES 111640Z 22007G12KT 31/17 A3009 RMK A01 T03140166  RH  043%=      5-min Rain = 0
KMES 111645Z 22008KT 31/16 A3009 RMK A01 T03140163  RH  042%=      5-min Rain = 0
KMES 111650Z 23009KT 32/16 A3009 RMK A01 T03190159  RH  040%=      5-min Rain = 0
KMES 111655Z 23007KT 32/16 A3009 RMK A01 T03180156  RH  040%=      5-min Rain = 0
KMES 111700Z 23007KT 32/16 A3008 RMK A01 T03200161  RH  040%=      5-min Rain = 0
KMES 111705Z 20007G12KT 33/15 A3008 RMK A01 T03260154  RH  037%=      5-min Rain = 0
KMES 111710Z 19005G10KT 33/15 A3008 RMK A01 T03260150  RH  036%=      5-min Rain = 0
KMES 111715Z 20004G9KT 33/15 A3008 RMK A01 T03250153  RH  037%=      5-min Rain = 0
KMES 111720Z 21007KT 33/15 A3008 RMK A01 T03290154  RH  037%=      5-min Rain = 0
KMES 111725Z 19006KT 33/15 A3008 RMK A01 T03300154  RH  036%=      5-min Rain = 0
KMES 111730Z 18006KT 33/15 A3008 RMK A01 T03320154  RH  036%=      5-min Rain = 0
KMES 111735Z 22008KT 34/16 A3008 RMK A01 T03350156  RH  036%=      5-min Rain = 0
KMES 111740Z 18005G11KT 33/15 A3008 RMK A01 T03330153  RH  036%=      5-min Rain = 0
KMES 111745Z 18009G15KT 34/15 A3008 RMK A01 T03390149  RH  033%=      5-min Rain = 0
KMES 111750Z 16009G15KT 34/15 A3007 RMK A01 T03420147  RH  033%=      5-min Rain = 0
KMES 111755Z 16007KT 34/15 A3007 RMK A01 T03420146  RH  032%=      5-min Rain = 0
KMES 111800Z 15007KT 34/15 A3007 RMK A01 T03420146  RH  032%=      5-min Rain = 0
KMES 111805Z 14008G14KT 34/14 A3006 RMK A01 T03380142  RH  032%=      5-min Rain = 0
KMES 111810Z 15010G15KT 35/13 A3006 RMK A01 T03450132  RH  029%=      5-min Rain = 0
KMES 111815Z 18009KT 35/13 A3006 RMK A01 T03470130  RH  028%=      5-min Rain = 0
KMES 111820Z 19007G12KT 35/13 A3006 RMK A01 T03460133  RH  029%=      5-min Rain = 0
KMES 111825Z 14007KT 35/14 A3006 RMK A01 T03490136  RH  029%=      5-min Rain = 0
KMES 111830Z 18008G14KT 35/14 A3005 RMK A01 T03490140  RH  030%=      5-min Rain = 0
KMES 111835Z 14009G14KT 35/14 A3005 RMK A01 T03490139  RH  030%=      5-min Rain = 0
KMES 111840Z 15005G13KT 34/13 A3005 RMK A01 T03420132  RH  029%=      5-min Rain = 0
KMES 111845Z 15012G19KT 34/12 A3005 RMK A01 T03410123  RH  028%=      5-min Rain = 0
KMES 111850Z 19012KT 35/12 A3005 RMK A01 T03490123  RH  027%=      5-min Rain = 0
KMES 111855Z 17011G16KT 35/12 A3005 RMK A01 T03520123  RH  026%=      5-min Rain = 0
KMES 111900Z 16008KT 35/12 A3004 RMK A01 T03460123  RH  027%=      5-min Rain = 0
KMES 111905Z 17009G15KT 35/13 A3004 RMK A01 T03490128  RH  027%=      5-min Rain = 0
KMES 111910Z 17007G14KT 35/13 A3004 RMK A01 T03520126  RH  027%=      5-min Rain = 0
KMES 111915Z 18010G15KT 35/12 A3004 RMK A01 T03530122  RH  026%=      5-min Rain = 0
KMES 111920Z 17009G16KT 35/13 A3004 RMK A01 T03510125  RH  027%=      5-min Rain = 0
KMES 111925Z 13011G16KT 35/13 A3004 RMK A01 T03490126  RH  027%=      5-min Rain = 0
KMES 111930Z 15008KT 35/12 A3004 RMK A01 T03510124  RH  026%=      5-min Rain = 0
KMES 111935Z 15009G14KT 35/13 A3003 RMK A01 T03460126  RH  027%=      5-min Rain = 0
KMES 111940Z 16010G15KT 35/13 A3003 RMK A01 T03500130  RH  028%=      5-min Rain = 0
KMES 111945Z 18013G20KT 35/13 A3003 RMK A01 T03490126  RH  027%=      5-min Rain = 0
KMES 111950Z 18010G16KT 35/13 A3003 RMK A01 T03530126  RH  027%=      5-min Rain = 0
KMES 111955Z 14015G21KT 36/13 A3002 RMK A01 T03560132  RH  027%=      5-min Rain = 0
KMES 112000Z 14014G19KT 36/13 A3002 RMK A01 T03560132  RH  027%=      5-min Rain = 0
KMES 112005Z 14012G17KT 35/13 A3002 RMK A01 T03530129  RH  027%=      5-min Rain = 0
KMES 112010Z 15010G15KT 35/13 A3002 RMK A01 T03480126  RH  027%=      5-min Rain = 0
KMES 112015Z 14010G15KT 35/13 A3002 RMK A01 T03500128  RH  027%=      5-min Rain = 0
KMES 112020Z 16010KT 36/13 A3001 RMK A01 T03570131  RH  027%=      5-min Rain = 0
KMES 112025Z 16010G15KT 36/13 A3001 RMK A01 T03590128  RH  026%=      5-min Rain = 0
KMES 112030Z 15011KT 36/13 A3001 RMK A01 T03560128  RH  026%=      5-min Rain = 0
KMES 112035Z 17010G17KT 36/13 A3001 RMK A01 T03570126  RH  026%=      5-min Rain = 0
KMES 112040Z 15010G17KT 36/12 A3001 RMK A01 T03610124  RH  025%=      5-min Rain = 0
KMES 112045Z 17013G18KT 35/12 A3001 RMK A01 T03510119  RH  026%=      5-min Rain = 0
KMES 112050Z 16008G14KT 35/12 A3001 RMK A01 T03470122  RH  027%=      5-min Rain = 0
KMES 112055Z 17009G15KT 35/12 A30 RMK A01 T03490124  RH  027%=      5-min Rain = 0
KMES 112100Z 15013G21KT 36/12 A30 RMK A01 T03550124  RH  026%=      5-min Rain = 0
KMES 112105Z 14012G18KT 36/13 A30 RMK A01 T03600128  RH  026%=      5-min Rain = 0
KMES 112110Z 16011G19KT 36/13 A30 RMK A01 T03640129  RH  025%=      5-min Rain = 0
KMES 112115Z 16010G16KT 36/13 A30 RMK A01 T03600125  RH  025%=      5-min Rain = 0
KMES 112120Z 16007G17KT 35/13 A2999 RMK A01 T03530128  RH  027%=      5-min Rain = 0
KMES 112125Z 15011G18KT 36/13 A2999 RMK A01 T03590127  RH  026%=      5-min Rain = 0
KMES 112130Z 15013G19KT 36/12 A2999 RMK A01 T03600124  RH  025%=      5-min Rain = 0
KMES 112135Z 17009G14KT 35/13 A2999 RMK A01 T03540125  RH  026%=      5-min Rain = 0
KMES 112140Z 15012G18KT 36/13 A2998 RMK A01 T03600128  RH  026%=      5-min Rain = 0
KMES 112145Z 14009KT 36/13 A2998 RMK A01 T03570126  RH  026%=      5-min Rain = 0
KMES 112150Z 15008G15KT 35/12 A2998 RMK A01 T03490124  RH  027%=      5-min Rain = 0
KMES 112155Z 15008G15KT 35/13 A2998 RMK A01 T03530126  RH  027%=      5-min Rain = 0
KMES 112200Z 16009G14KT 36/13 A2997 RMK A01 T03620127  RH  025%=      5-min Rain = 0
KMES 112205Z 17010G18KT 36/13 A2997 RMK A01 T03600126  RH  026%=      5-min Rain = 0
KMES 112210Z 16008G17KT 36/13 A2997 RMK A01 T03600128  RH  026%=      5-min Rain = 0
KMES 112215Z 14013G18KT 36/13 A2997 RMK A01 T03600129  RH  026%=      5-min Rain = 0
KMES 112220Z 13012G17KT 36/13 A2997 RMK A01 T03590133  RH  027%=      5-min Rain = 0
KMES 112225Z 14013G19KT 36/13 A2997 RMK A01 T03560130  RH  027%=      5-min Rain = 0
KMES 112230Z 13014KT 36/13 A2996 RMK A01 T03550130  RH  027%=      5-min Rain = 0
KMES 112235Z 14013G19KT 36/13 A2996 RMK A01 T03580131  RH  027%=      5-min Rain = 0
KMES 112240Z 15012G17KT 36/13 A2996 RMK A01 T03600129  RH  026%=      5-min Rain = 0
KMES 112245Z 14012G18KT 36/13 A2996 RMK A01 T03560128  RH  026%=      5-min Rain = 0
KMES 112250Z 15010G16KT 36/13 A2996 RMK A01 T03570126  RH  026%=      5-min Rain = 0
KMES 112255Z 15011G16KT 36/13 A2997 RMK A01 T03620127  RH  025%=      5-min Rain = 0
KMES 112300Z 16012G18KT 36/13 A2996 RMK A01 T03600126  RH  026%=      5-min Rain = 0
KMES 112305Z 17009G16KT 36/13 A2996 RMK A01 T03550126  RH  026%=      5-min Rain = 0
KMES 112310Z 15010G18KT 35/13 A2996 RMK A01 T03540128  RH  027%=      5-min Rain = 0
KMES 112315Z 14011G17KT 36/13 A2996 RMK A01 T03560129  RH  027%=      5-min Rain = 0
KMES 112320Z 16011KT 36/13 A2996 RMK A01 T03570127  RH  026%=      5-min Rain = 0
KMES 112325Z 16011G16KT 35/13 A2996 RMK A01 T03520126  RH  027%=      5-min Rain = 0
KMES 112330Z 16009G14KT 35/13 A2996 RMK A01 T03520127  RH  027%=      5-min Rain = 0
KMES 112335Z 16009G14KT 35/13 A2996 RMK A01 T03520125  RH  027%=      5-min Rain = 0
KMES 112340Z 16008KT 35/12 A2996 RMK A01 T03480123  RH  027%=      5-min Rain = 0
KMES 112345Z 15009G15KT 35/12 A2996 RMK A01 T03470124  RH  027%=      5-min Rain = 0
KMES 112350Z 15010G15KT 35/12 A2996 RMK A01 T03480123  RH  027%=      5-min Rain = 0
KMES 112355Z 14009KT 35/12 A2996 RMK A01 T03480124  RH  027%=      5-min Rain = 0
KMES 120000Z 15009G15KT 35/12 A2996 RMK A01 T03460123  RH  027%=      5-min Rain = 0
KMES 120005Z 14012G17KT 34/13 A2996 RMK A01 T03430127  RH  028%=      5-min Rain = 0
KMES 120010Z 15012G17KT 34/13 A2996 RMK A01 T03440128  RH  028%=      5-min Rain = 0
KMES 120015Z 14010G15KT 34/13 A2996 RMK A01 T03430129  RH  029%=      5-min Rain = 0
KMES 120020Z 13011KT 34/13 A2996 RMK A01 T03440131  RH  029%=      5-min Rain = 0
KMES 120025Z 14011G17KT 35/13 A2996 RMK A01 T03450130  RH  028%=      5-min Rain = 0
KMES 120030Z 16011G16KT 35/13 A2996 RMK A01 T03460126  RH  027%=      5-min Rain = 0
KMES 120035Z 15011G17KT 35/13 A2996 RMK A01 T03450125  RH  028%=      5-min Rain = 0
KMES 120040Z 15011G17KT 35/13 A2996 RMK A01 T03450126  RH  028%=      5-min Rain = 0
KMES 120045Z 15011KT 34/13 A2997 RMK A01 T03440127  RH  028%=      5-min Rain = 0
KMES 120050Z 15010KT 34/13 A2997 RMK A01 T03430127  RH  028%=      5-min Rain = 0
KMES 120055Z 15011KT 34/13 A2997 RMK A01 T03420125  RH  028%=      5-min Rain = 0
KMES 120100Z 15008G13KT 34/13 A2997 RMK A01 T03410126  RH  028%=      5-min Rain = 0
KMES 120105Z 15009G14KT 34/13 A2997 RMK A01 T03400127  RH  029%=      5-min Rain = 0
KMES 120110Z 15009KT 34/13 A2997 RMK A01 T03390126  RH  029%=      5-min Rain = 0
KMES 120115Z 15008KT 34/13 A2997 RMK A01 T03390126  RH  029%=      5-min Rain = 0
KMES 120120Z 15009KT 34/13 A2998 RMK A01 T03370127  RH  029%=      5-min Rain = 0
KMES 120125Z 14008KT 34/13 A2998 RMK A01 T03350128  RH  030%=      5-min Rain = 0
KMES 120130Z 13007KT 33/13 A2998 RMK A01 T03330130  RH  030%=      5-min Rain = 0
KMES 120135Z 13008KT 33/13 A2998 RMK A01 T03310130  RH  031%=      5-min Rain = 0
KMES 120140Z 13007KT 33/13 A2998 RMK A01 T03290129  RH  031%=      5-min Rain = 0
KMES 120145Z 13007KT 33/13 A2998 RMK A01 T03270130  RH  032%=      5-min Rain = 0
KMES 120150Z 12005KT 32/13 A2998 RMK A01 T03230132  RH  033%=      5-min Rain = 0
KMES 120155Z 11004KT 32/13 A2998 RMK A01 T03190133  RH  034%=      5-min Rain = 0
KMES 120200Z 12005KT 32/14 A2999 RMK A01 T03150137  RH  035%=      5-min Rain = 0
KMES 120205Z 12005KT 31/14 A2999 RMK A01 T03130139  RH  036%=      5-min Rain = 0
KMES 120210Z 12005KT 31/14 A2999 RMK A01 T03110138  RH  036%=      5-min Rain = 0
KMES 120215Z 12005KT 31/14 A2999 RMK A01 T03100137  RH  036%=      5-min Rain = 0
KMES 120220Z 12005KT 31/14 A2999 RMK A01 T03090138  RH  037%=      5-min Rain = 0
KMES 120225Z 13005KT 31/14 A2999 RMK A01 T03080139  RH  037%=      5-min Rain = 0
KMES 120230Z 13004KT 31/14 A2999 RMK A01 T03070140  RH  038%=      5-min Rain = 0
KMES 120235Z 12005KT 31/14 A2999 RMK A01 T03050139  RH  038%=      5-min Rain = 0
KMES 120240Z 12005KT 31/14 A2999 RMK A01 T03050140  RH  038%=      5-min Rain = 0
KMES 120245Z 12005KT 30/14 A2999 RMK A01 T03040140  RH  038%=      5-min Rain = 0
KMES 120250Z 12005KT 30/14 A2999 RMK A01 T03030140  RH  039%=      5-min Rain = 0
KMES 120255Z 12005KT 30/14 A30 RMK A01 T03020140  RH  039%=      5-min Rain = 0
KMES 120300Z 12005KT 30/14 A30 RMK A01 T03010140  RH  039%=      5-min Rain = 0
KMES 120305Z 12005KT 30/14 A30 RMK A01 T03010140  RH  039%=      5-min Rain = 0
KMES 120310Z 12005KT 30/14 A30 RMK A01 T03010139  RH  039%=      5-min Rain = 0
KMES 120315Z 12005KT 30/14 A3001 RMK A01 T03010139  RH  039%=      5-min Rain = 0
KMES 120320Z 12005KT 30/14 A3001 RMK A01 T03010139  RH  039%=      5-min Rain = 0
KMES 120325Z 13005KT 30/14 A3002 RMK A01 T03010140  RH  039%=      5-min Rain = 0
KMES 120330Z 14004KT 30/14 A3002 RMK A01 T03010140  RH  039%=      5-min Rain = 0
KMES 120335Z 15003KT 30/14 A3002 RMK A01 T03000141  RH  040%=      5-min Rain = 0
KMES 120340Z 16002KT 30/14 A3002 RMK A01 T02980142  RH  040%=      5-min Rain = 0
KMES 120345Z 15002KT 30/14 A3002 RMK A01 T02970143  RH  041%=      5-min Rain = 0
KMES 120350Z 15002KT 30/14 A3003 RMK A01 T02960144  RH  041%=      5-min Rain = 0
KMES 120355Z 15003KT 30/14 A3003 RMK A01 T02950144  RH  041%=      5-min Rain = 0
KMES 120400Z 15003KT 30/15 A3003 RMK A01 T02950145  RH  042%=      5-min Rain = 0
KMES 120405Z 16002KT 29/15 A3003 RMK A01 T02930146  RH  042%=      5-min Rain = 0
KMES 120410Z 15002KT 29/15 A3003 RMK A01 T02920147  RH  043%=      5-min Rain = 0
KMES 120415Z 15003KT 29/15 A3002 RMK A01 T02910151  RH  045%=      5-min Rain = 0
KMES 120420Z 13003KT 29/15 A3002 RMK A01 T02880152  RH  046%=      5-min Rain = 0
KMES 120425Z 11003KT 28/16 A3002 RMK A01 T02840155  RH  047%=      5-min Rain = 0
KMES 120430Z 12003KT 28/15 A3002 RMK A01 T02830152  RH  047%=      5-min Rain = 0
KMES 120435Z 11003KT 28/15 A3002 RMK A01 T02820153  RH  047%=      5-min Rain = 0
KMES 120440Z 09004KT 28/15 A3002 RMK A01 T02810151  RH  047%=      5-min Rain = 0
KMES 120445Z 09005KT 28/15 A3003 RMK A01 T02800149  RH  047%=      5-min Rain = 0
KMES 120450Z 11004KT 28/15 A3002 RMK A01 T02810146  RH  046%=      5-min Rain = 0
KMES 120455Z 11004KT 28/14 A3002 RMK A01 T02830144  RH  045%=      5-min Rain = 0

Page generated in 0.0091 seconds.